Time;durP1;ratioP1;P1;durP2;ratioP2;P2;SDS_P1;SDS_P2;PMS_P1;PMS_P2;Temp;Humidity;BMP_temperature;BMP_pressure;BME280_temperature;BME280_humidity;BME280_pressure;Samples;Min_cycle;Max_cycle;Signal;HPM_P1;HPM_P2
2023/06/08 00:00:05;;;;;;;26.08;11.65;;;;;;;14.41;100.00;101829.09;5029468;28;20044;-76
2023/06/08 00:02:39;;;;;;;29.40;12.45;;;;;;;14.27;100.00;101838.97;5032555;28;20048;-75
2023/06/08 00:05:13;;;;;;;30.10;12.45;;;;;;;14.24;100.00;101830.13;5026860;28;20101;-77
2023/06/08 00:07:43;;;;;;;23.95;12.30;;;;;;;14.34;100.00;101829.56;5027773;28;20073;-76
2023/06/08 00:10:09;;;;;;;30.83;12.77;;;;;;;14.09;100.00;101825.72;5021846;28;20038;-76
2023/06/08 00:12:36;;;;;;;31.90;13.65;;;;;;;14.18;100.00;101832.34;5024106;28;20025;-77
2023/06/08 00:15:05;;;;;;;27.27;12.55;;;;;;;14.02;100.00;101835.13;5023731;28;20044;-76
2023/06/08 00:17:31;;;;;;;24.02;12.85;;;;;;;14.17;100.00;101825.28;5021566;28;20869;-76
2023/06/08 00:19:59;;;;;;;28.17;13.55;;;;;;;13.91;100.00;101830.44;5021782;28;20108;-77
2023/06/08 00:22:29;;;;;;;41.10;14.38;;;;;;;14.00;100.00;101819.09;5022794;28;20087;-75
2023/06/08 00:24:54;;;;;;;29.58;13.48;;;;;;;13.78;100.00;101825.91;5022278;28;20087;-77
2023/06/08 00:27:20;;;;;;;27.45;12.80;;;;;;;13.68;100.00;101826.47;5014187;28;20111;-75
2023/06/08 00:29:45;;;;;;;32.28;14.65;;;;;;;13.70;100.00;101823.69;5019737;28;20080;-76
2023/06/08 00:32:12;;;;;;;26.05;13.48;;;;;;;13.79;100.00;101828.47;5019404;28;20080;-77
2023/06/08 00:34:39;;;;;;;41.67;13.93;;;;;;;13.70;100.00;101826.34;5019669;28;20037;-77
2023/06/08 00:37:05;;;;;;;32.85;14.15;;;;;;;13.64;100.00;101822.22;5031514;28;20160;-77
2023/06/08 00:39:31;;;;;;;31.58;14.13;;;;;;;13.62;100.00;101824.16;5047500;28;20852;-76
2023/06/08 00:41:56;;;;;;;35.63;14.45;;;;;;;13.70;100.00;101826.34;5055613;28;20045;-76
2023/06/08 00:44:22;;;;;;;33.58;14.70;;;;;;;13.56;100.00;101823.69;5057286;28;20029;-76
2023/06/08 00:46:49;;;;;;;31.67;14.25;;;;;;;13.51;100.00;101818.59;5052615;28;20471;-77
2023/06/08 00:49:16;;;;;;;31.25;14.57;;;;;;;13.50;100.00;101818.66;5068310;28;20040;-75
2023/06/08 00:51:42;;;;;;;37.22;15.82;;;;;;;13.61;100.00;101814.41;5050140;28;20037;-76
2023/06/08 00:54:14;;;;;;;30.13;14.07;;;;;;;13.51;100.00;101815.91;5055798;28;20069;-76
2023/06/08 00:56:41;;;;;;;34.22;14.32;;;;;;;13.24;100.00;101810.34;5050793;28;20040;-77
2023/06/08 00:59:11;;;;;;;35.63;14.25;;;;;;;13.18;100.00;101813.38;5042742;28;20037;-76
2023/06/08 01:01:40;;;;;;;39.40;15.43;;;;;;;13.17;100.00;101812.50;5056945;28;20136;-77
2023/06/08 01:04:09;;;;;;;34.45;15.05;;;;;;;13.40;100.00;101807.63;5071095;28;20029;-76
2023/06/08 01:06:44;;;;;;;32.25;15.73;;;;;;;13.26;100.00;101812.97;5061139;28;20033;-77
2023/06/08 01:09:21;;;;;;;32.17;14.60;;;;;;;13.42;100.00;101811.97;5049773;28;20037;-74
2023/06/08 01:11:56;;;;;;;35.97;14.95;;;;;;;13.35;100.00;101815.06;5052939;28;20036;-76
2023/06/08 01:14:36;;;;;;;30.42;15.55;;;;;;;13.35;100.00;101823.97;5062333;28;20079;-75
2023/06/08 01:17:12;;;;;;;35.42;15.52;;;;;;;13.28;100.00;101805.69;5045154;28;20041;-77
2023/06/08 01:20:11;;;;;;;37.05;16.13;;;;;;;13.34;100.00;101811.53;5068428;28;20134;-77
2023/06/08 01:22:48;;;;;;;30.42;15.13;;;;;;;13.10;100.00;101816.50;5058723;28;20040;-78
2023/06/08 01:25:16;;;;;;;31.70;14.75;;;;;;;13.09;100.00;101814.75;5039791;28;20087;-76
2023/06/08 01:27:44;;;;;;;34.25;17.00;;;;;;;12.99;100.00;101820.75;5069958;28;20656;-78
2023/06/08 01:30:10;;;;;;;27.48;14.63;;;;;;;13.09;100.00;101809.41;5064127;28;20041;-78
2023/06/08 01:32:36;;;;;;;33.42;14.80;;;;;;;13.15;100.00;101808.19;5048112;28;20306;-77
2023/06/08 01:35:02;;;;;;;33.72;15.55;;;;;;;13.03;100.00;101806.22;5050452;28;20041;-77
2023/06/08 01:37:42;;;;;;;24.92;15.73;;;;;;;12.99;100.00;101810.03;5065697;28;20565;-78
2023/06/08 01:40:35;;;;;;;36.60;17.40;;;;;;;13.01;100.00;101813.50;5050198;28;20041;-76
2023/06/08 01:43:02;;;;;;;30.23;16.40;;;;;;;12.88;100.00;101816.00;5063300;28;20030;-77
2023/06/08 01:45:32;;;;;;;30.52;15.63;;;;;;;12.90;100.00;101816.78;5044338;28;20044;-76
2023/06/08 01:48:03;;;;;;;26.50;15.48;;;;;;;12.88;100.00;101818.69;5051164;28;20033;-75
2023/06/08 01:50:31;;;;;;;30.77;16.25;;;;;;;12.80;100.00;101804.88;5068721;28;20037;-76
2023/06/08 01:52:58;;;;;;;36.63;17.38;;;;;;;12.84;100.00;101809.97;5032255;28;20040;-76
2023/06/08 01:55:24;;;;;;;30.40;15.93;;;;;;;12.69;100.00;101810.84;5053478;28;20092;-76
2023/06/08 01:57:50;;;;;;;34.05;16.20;;;;;;;12.73;100.00;101809.72;5046231;28;20029;-75
2023/06/08 02:00:18;;;;;;;32.55;16.38;;;;;;;12.78;100.00;101804.97;5045913;28;20083;-76
2023/06/08 02:02:44;;;;;;;33.22;16.65;;;;;;;12.91;100.00;101807.81;5059305;28;20037;-75
2023/06/08 02:05:13;;;;;;;45.22;17.50;;;;;;;12.81;100.00;101812.84;5059469;28;20033;-76
2023/06/08 02:07:40;;;;;;;30.23;16.17;;;;;;;12.73;100.00;101808.88;5043725;28;20114;-76
2023/06/08 02:10:10;;;;;;;38.45;17.35;;;;;;;12.65;100.00;101814.63;5039890;28;20044;-75
2023/06/08 02:12:36;;;;;;;30.58;16.92;;;;;;;12.84;100.00;101809.09;5040456;28;20032;-74
2023/06/08 02:15:03;;;;;;;35.30;17.27;;;;;;;12.86;100.00;101812.56;5052383;28;20866;-75
2023/06/08 02:17:33;;;;;;;34.75;17.88;;;;;;;12.80;100.00;101810.22;5063540;28;20036;-75
2023/06/08 02:20:02;;;;;;;36.13;16.40;;;;;;;12.58;100.00;101799.88;5061292;28;20025;-75
2023/06/08 02:22:28;;;;;;;37.45;16.40;;;;;;;12.56;100.00;101801.81;5045305;28;20043;-76
2023/06/08 02:24:53;;;;;;;32.17;16.23;;;;;;;12.63;100.00;101796.00;5062184;28;20063;-76
2023/06/08 02:27:20;;;;;;;32.13;16.55;;;;;;;12.55;100.00;101798.25;5039875;28;20118;-75
2023/06/08 02:29:45;;;;;;;39.90;18.52;;;;;;;12.51;100.00;101804.72;5050778;28;20184;-75
2023/06/08 02:32:11;;;;;;;29.15;17.20;;;;;;;12.58;100.00;101791.84;5072543;28;20035;-76
2023/06/08 02:34:41;;;;;;;35.72;17.45;;;;;;;12.61;100.00;101797.06;5068415;28;20441;-76
2023/06/08 02:37:11;;;;;;;40.20;18.00;;;;;;;12.49;100.00;101797.72;5027911;28;20099;-75
2023/06/08 02:39:40;;;;;;;34.58;17.65;;;;;;;12.49;100.00;101790.56;5053560;28;20033;-75
2023/06/08 02:42:05;;;;;;;34.80;17.63;;;;;;;12.46;100.00;101793.44;5065856;28;20153;-75
2023/06/08 02:44:31;;;;;;;37.97;18.83;;;;;;;12.57;100.00;101791.00;5051359;28;20051;-76
2023/06/08 02:46:58;;;;;;;40.35;17.88;;;;;;;12.43;100.00;101802.47;5063223;28;21416;-75
2023/06/08 02:49:24;;;;;;;41.88;18.67;;;;;;;12.38;100.00;101795.66;5045309;28;20115;-76
2023/06/08 02:51:50;;;;;;;36.15;17.92;;;;;;;12.46;100.00;101796.09;5065361;28;20044;-77
2023/06/08 02:54:16;;;;;;;44.00;19.20;;;;;;;12.28;100.00;101791.75;5037198;28;20470;-77
2023/06/08 02:56:41;;;;;;;38.05;17.05;;;;;;;12.25;100.00;101803.50;5036496;28;20517;-77
2023/06/08 02:59:10;;;;;;;42.08;18.85;;;;;;;12.05;100.00;101801.03;5033949;28;20029;-76
2023/06/08 03:01:36;;;;;;;44.40;18.50;;;;;;;12.06;100.00;101790.28;5052556;28;20055;-76
2023/06/08 03:04:12;;;;;;;37.75;19.15;;;;;;;11.91;100.00;101802.66;5037582;28;20116;-78
2023/06/08 03:06:43;;;;;;;45.65;19.50;;;;;;;11.97;100.00;101790.75;5052073;28;20033;-77
2023/06/08 03:09:13;;;;;;;37.72;18.92;;;;;;;12.13;100.00;101788.13;5050959;28;20043;-74
2023/06/08 03:11:43;;;;;;;40.78;19.40;;;;;;;12.05;100.00;101791.22;5038975;28;20058;-74
2023/06/08 03:14:10;;;;;;;42.45;19.85;;;;;;;12.06;100.00;101778.72;5038625;28;20044;-74
2023/06/08 03:16:36;;;;;;;40.17;20.65;;;;;;;12.14;100.00;101779.16;5040364;28;20029;-78
2023/06/08 03:19:05;;;;;;;35.67;18.42;;;;;;;12.05;100.00;101782.31;5050078;28;20037;-78
2023/06/08 03:21:36;;;;;;;40.25;17.92;;;;;;;12.08;100.00;101785.69;5055805;28;20033;-77
2023/06/08 03:24:05;;;;;;;39.97;19.85;;;;;;;11.95;100.00;101776.63;5046560;28;21058;-76
2023/06/08 03:26:33;;;;;;;39.60;19.25;;;;;;;11.93;100.00;101783.84;5057952;28;20091;-76
2023/06/08 03:29:00;;;;;;;42.90;19.25;;;;;;;12.14;100.00;101776.47;5038816;28;20032;-77
2023/06/08 03:31:36;;;;;;;46.83;20.83;;;;;;;12.00;100.00;101789.72;5041107;28;20198;-78
2023/06/08 03:34:10;;;;;;;46.50;21.48;;;;;;;12.08;100.00;101782.16;5046549;28;20029;-76
2023/06/08 03:36:38;;;;;;;45.65;21.00;;;;;;;11.96;100.00;101789.03;5049546;28;20067;-76
2023/06/08 03:39:13;;;;;;;42.10;20.48;;;;;;;12.22;100.00;101778.75;5048709;28;20103;-77
2023/06/08 03:41:40;;;;;;;42.50;19.63;;;;;;;12.09;100.00;101782.06;5044454;28;20079;-77
2023/06/08 03:44:10;;;;;;;42.42;19.83;;;;;;;12.09;100.00;101783.88;5059058;28;20150;-77
2023/06/08 03:46:37;;;;;;;43.40;20.38;;;;;;;12.06;100.00;101779.56;5051020;28;20033;-76
2023/06/08 03:49:04;;;;;;;43.38;20.33;;;;;;;12.00;100.00;101771.00;5034843;28;20040;-75
2023/06/08 03:51:31;;;;;;;47.33;21.48;;;;;;;12.15;100.00;101767.53;5030602;28;20127;-75
2023/06/08 03:53:57;;;;;;;50.00;21.45;;;;;;;12.05;100.00;101775.19;5042530;28;20614;-75
2023/06/08 03:56:25;;;;;;;44.78;20.83;;;;;;;12.07;100.00;101773.28;5033057;28;20032;-76
2023/06/08 03:58:52;;;;;;;39.03;20.65;;;;;;;12.00;100.00;101769.22;5033729;28;20029;-75
2023/06/08 04:01:22;;;;;;;44.10;21.33;;;;;;;12.16;100.00;101770.09;5044419;28;20048;-75
2023/06/08 04:03:50;;;;;;;44.47;19.60;;;;;;;12.06;100.00;101770.69;5050863;28;20029;-75
2023/06/08 04:06:16;;;;;;;43.63;20.55;;;;;;;12.09;100.00;101767.84;5041965;28;21083;-75
2023/06/08 04:08:44;;;;;;;40.78;21.33;;;;;;;12.19;100.00;101769.06;5062700;28;20033;-76
2023/06/08 04:11:11;;;;;;;49.05;21.95;;;;;;;12.33;100.00;101761.13;5054404;28;20056;-75
2023/06/08 04:13:40;;;;;;;43.17;21.90;;;;;;;12.15;100.00;101770.19;5054799;28;20025;-75
2023/06/08 04:16:10;;;;;;;43.83;21.38;;;;;;;12.54;100.00;101768.91;5055478;28;20048;-74
2023/06/08 04:18:40;;;;;;;49.90;22.17;;;;;;;12.72;100.00;101765.19;5045793;28;20586;-75
2023/06/08 04:21:10;;;;;;;37.72;20.98;;;;;;;12.43;100.00;101770.38;5038160;28;20083;-75
2023/06/08 04:23:36;;;;;;;38.42;22.58;;;;;;;12.52;100.00;101768.13;5045058;28;20025;-77
2023/06/08 04:26:07;;;;;;;42.88;21.33;;;;;;;12.84;100.00;101763.59;5046292;28;20479;-75
2023/06/08 04:28:35;;;;;;;45.15;21.80;;;;;;;13.12;100.00;101760.19;5052285;28;20048;-76
2023/06/08 04:31:02;;;;;;;41.60;20.30;;;;;;;13.15;100.00;101754.63;5025097;28;20037;-76
2023/06/08 04:33:31;;;;;;;44.38;21.25;;;;;;;13.63;100.00;101753.50;5046401;28;20056;-75
2023/06/08 04:36:00;;;;;;;38.58;21.15;;;;;;;13.32;100.00;101753.66;5042662;28;20072;-76
2023/06/08 04:38:27;;;;;;;38.25;21.45;;;;;;;13.65;100.00;101762.31;5039289;28;20095;-76
2023/06/08 04:40:54;;;;;;;45.30;20.23;;;;;;;13.70;100.00;101754.88;5059872;28;20037;-76
2023/06/08 04:43:30;;;;;;;39.30;21.38;;;;;;;13.68;100.00;101750.56;5053795;28;20041;-76
2023/06/08 04:45:59;;;;;;;36.40;20.58;;;;;;;13.44;100.00;101755.59;5046856;28;20027;-75
2023/06/08 04:48:27;;;;;;;32.88;20.17;;;;;;;13.65;100.00;101751.59;5017601;28;20020;-75
2023/06/08 04:50:59;;;;;;;38.50;21.25;;;;;;;14.20;100.00;101742.75;5046580;28;20032;-75
2023/06/08 04:53:25;;;;;;;;;;;;;;;14.12;100.00;101742.41;5059728;28;20079;-76
2023/06/08 04:55:57;;;;;;;39.20;20.45;;;;;;;14.22;100.00;101742.69;5039569;28;20043;-76
2023/06/08 04:58:26;;;;;;;37.17;20.00;;;;;;;14.45;100.00;101743.84;5057401;28;20040;-74
2023/06/08 05:00:52;;;;;;;39.45;22.17;;;;;;;14.36;100.00;101756.06;5037783;28;20044;-76
2023/06/08 05:03:20;;;;;;;40.95;21.55;;;;;;;14.83;100.00;101748.56;5033058;28;20147;-76
2023/06/08 05:05:46;;;;;;;38.35;20.40;;;;;;;15.31;100.00;101744.34;5051873;28;20028;-76
2023/06/08 05:08:11;;;;;;;43.72;23.23;;;;;;;15.06;100.00;101742.50;5051802;28;20066;-78
2023/06/08 05:10:43;;;;;;;34.20;19.35;;;;;;;15.53;100.00;101744.59;5030327;28;20033;-78
2023/06/08 05:13:12;;;;;;;44.88;22.20;;;;;;;15.20;100.00;101739.72;5031919;28;20121;-77
2023/06/08 05:15:41;;;;;;;32.15;20.67;;;;;;;15.16;100.00;101743.59;5015008;28;20221;-78
2023/06/08 05:18:13;;;;;;;36.03;19.83;;;;;;;15.25;100.00;101747.47;5050286;28;20151;-77
2023/06/08 05:20:43;;;;;;;33.22;19.48;;;;;;;15.66;100.00;101736.59;5050193;28;20129;-77
2023/06/08 05:23:12;;;;;;;30.85;19.92;;;;;;;15.29;100.00;101744.47;5031771;28;20717;-77
2023/06/08 05:25:42;;;;;;;39.08;21.60;;;;;;;15.77;100.00;101742.06;5046527;28;20056;-78
2023/06/08 05:28:11;;;;;;;30.50;19.98;;;;;;;16.42;100.00;101738.28;5046681;28;20028;-77
2023/06/08 05:30:41;;;;;;;38.58;19.92;;;;;;;16.26;100.00;101729.56;5049252;28;20040;-77
2023/06/08 05:33:10;;;;;;;37.80;20.27;;;;;;;15.60;100.00;101742.34;5029613;28;20048;-78
2023/06/08 05:35:36;;;;;;;35.75;20.20;;;;;;;15.83;100.00;101730.00;5071581;28;20044;-77
2023/06/08 05:38:02;;;;;;;33.65;19.13;;;;;;;15.51;100.00;101727.75;5040974;28;20041;-77
2023/06/08 05:40:28;;;;;;;31.80;18.02;;;;;;;16.12;100.00;101733.28;5051383;28;20032;-76
2023/06/08 05:42:53;;;;;;;31.00;18.75;;;;;;;16.52;100.00;101733.06;5049306;28;20533;-75
2023/06/08 05:45:19;;;;;;;33.92;18.58;;;;;;;16.47;100.00;101729.84;5049644;28;20146;-76
2023/06/08 05:47:45;;;;;;;30.02;18.33;;;;;;;15.92;100.00;101737.41;5068310;28;20598;-78
2023/06/08 05:50:11;;;;;;;33.83;18.88;;;;;;;15.77;100.00;101734.00;5068084;28;20037;-79
2023/06/08 05:52:40;;;;;;;30.70;17.75;;;;;;;15.96;100.00;101735.34;5066488;28;20064;-78
2023/06/08 05:55:10;;;;;;;27.90;18.60;;;;;;;15.97;100.00;101735.25;5065315;28;20495;-77
2023/06/08 05:57:37;;;;;;;33.15;18.20;;;;;;;15.14;100.00;101733.91;5065551;28;20033;-75
2023/06/08 06:00:11;;;;;;;32.38;17.75;;;;;;;14.97;100.00;101738.63;5059513;28;20470;-77
2023/06/08 06:02:41;;;;;;;29.13;18.17;;;;;;;14.72;100.00;101739.41;5063531;28;20040;-75
2023/06/08 06:05:11;;;;;;;35.28;19.23;;;;;;;14.22;100.00;101740.00;5069863;28;20032;-75
2023/06/08 06:07:40;;;;;;;33.95;19.27;;;;;;;15.04;100.00;101741.75;5045312;28;20406;-76
2023/06/08 06:10:07;;;;;;;36.38;18.00;;;;;;;15.34;100.00;101728.03;5057518;28;20525;-76
2023/06/08 06:12:40;;;;;;;32.75;19.42;;;;;;;15.07;100.00;101738.84;5052519;28;20114;-76
2023/06/08 06:15:10;;;;;;;34.25;18.80;;;;;;;15.22;100.00;101737.81;5055562;28;20154;-76
2023/06/08 06:17:36;;;;;;;37.90;19.25;;;;;;;14.74;100.00;101739.28;5054767;28;20045;-76
2023/06/08 06:20:03;;;;;;;31.02;18.73;;;;;;;14.75;100.00;101727.56;5057893;28;20507;-77
2023/06/08 06:22:28;;;;;;;37.50;20.73;;;;;;;14.54;100.00;101735.25;5065224;28;20048;-75
2023/06/08 06:24:54;;;;;;;30.95;19.40;;;;;;;14.72;100.00;101731.34;5066913;28;20149;-76
2023/06/08 06:27:19;;;;;;;35.95;19.63;;;;;;;14.62;100.00;101727.56;5050963;28;20122;-76
2023/06/08 06:29:45;;;;;;;33.22;18.83;;;;;;;14.66;100.00;101737.13;5068820;28;20064;-76
2023/06/08 06:32:11;;;;;;;31.58;20.13;;;;;;;14.61;100.00;101736.56;5070243;28;20033;-76
2023/06/08 06:34:43;;;;;;;33.53;20.10;;;;;;;14.70;100.00;101738.63;5052200;28;20040;-76
2023/06/08 06:37:11;;;;;;;31.95;19.00;;;;;;;14.66;100.00;101736.25;5034177;28;21240;-76
2023/06/08 06:39:36;;;;;;;35.58;19.58;;;;;;;15.26;100.00;101736.63;5060862;28;20029;-75
2023/06/08 06:42:02;;;;;;;30.25;18.50;;;;;;;15.40;100.00;101740.19;5065104;28;20152;-76
2023/06/08 06:44:36;;;;;;;34.05;18.90;;;;;;;15.45;100.00;101740.72;5028597;28;20033;-76
2023/06/08 06:47:06;;;;;;;31.48;17.83;;;;;;;16.10;100.00;101742.44;5042420;28;20052;-75
2023/06/08 06:49:32;;;;;;;33.42;18.05;;;;;;;16.04;100.00;101741.06;5066628;28;20062;-77
2023/06/08 06:51:57;;;;;;;29.65;19.13;;;;;;;15.93;100.00;101749.91;5065274;28;20032;-76
2023/06/08 06:54:23;;;;;;;32.45;19.17;;;;;;;16.13;100.00;101751.16;5064836;28;20515;-76
2023/06/08 06:56:49;;;;;;;35.72;17.90;;;;;;;16.00;100.00;101755.69;5062553;28;20421;-78
2023/06/08 06:59:14;;;;;;;27.25;18.67;;;;;;;15.55;100.00;101761.47;5058044;28;20419;-77
2023/06/08 07:01:41;;;;;;;27.90;18.25;;;;;;;15.73;100.00;101754.00;5033349;28;20498;-78
2023/06/08 07:04:10;;;;;;;32.88;18.65;;;;;;;16.05;100.00;101753.53;5067528;28;20123;-78
2023/06/08 07:06:36;;;;;;;30.67;17.55;;;;;;;16.46;100.00;101746.97;5069058;28;20037;-76
2023/06/08 07:09:04;;;;;;;32.05;18.00;;;;;;;16.35;100.00;101747.75;5042097;28;20033;-77
2023/06/08 07:11:29;;;;;;;33.03;18.02;;;;;;;16.41;100.00;101750.00;5061454;28;20067;-77
2023/06/08 07:13:55;;;;;;;32.63;17.50;;;;;;;16.26;100.00;101753.81;5059433;28;20028;-77
2023/06/08 07:16:22;;;;;;;30.13;17.20;;;;;;;16.64;100.00;101742.91;5064663;28;20133;-77
2023/06/08 07:18:47;;;;;;;32.30;18.17;;;;;;;16.53;100.00;101753.63;5062357;28;20037;-78
2023/06/08 07:21:14;;;;;;;30.08;17.25;;;;;;;16.56;100.00;101748.00;5059696;28;20116;-77
2023/06/08 07:23:42;;;;;;;32.50;16.83;;;;;;;16.45;100.00;101747.94;5069692;28;20136;-76
2023/06/08 07:26:11;;;;;;;33.45;17.88;;;;;;;16.46;100.00;101747.81;5067491;28;20203;-76
2023/06/08 07:28:40;;;;;;;27.42;17.08;;;;;;;16.38;100.00;101747.53;5055804;28;20025;-76
2023/06/08 07:31:10;;;;;;;29.27;16.48;;;;;;;16.29;99.78;101748.22;5071769;28;20086;-77
2023/06/08 07:33:36;;;;;;;29.73;17.25;;;;;;;16.17;100.00;101746.44;5065180;28;20036;-77
2023/06/08 07:36:01;;;;;;;29.60;17.13;;;;;;;16.54;100.00;101749.97;5063201;28;20458;-76
2023/06/08 07:38:27;;;;;;;35.03;17.67;;;;;;;16.27;100.00;101744.78;5051708;28;20044;-77
2023/06/08 07:40:53;;;;;;;29.73;17.10;;;;;;;16.42;100.00;101748.19;5063755;28;20032;-77
2023/06/08 07:43:19;;;;;;;31.27;17.85;;;;;;;16.54;100.00;101745.44;5047579;28;20124;-77
2023/06/08 07:45:45;;;;;;;30.48;17.40;;;;;;;16.29;100.00;101743.69;5039525;28;20037;-78
2023/06/08 07:48:10;;;;;;;33.22;17.60;;;;;;;16.66;100.00;101746.34;5036363;28;20044;-76
2023/06/08 07:50:37;;;;;;;30.40;17.05;;;;;;;16.33;100.00;101747.00;5059493;28;20036;-77
2023/06/08 07:53:12;;;;;;;27.20;17.75;;;;;;;16.20;100.00;101752.41;5041648;28;20829;-76
2023/06/08 07:55:40;;;;;;;32.45;17.23;;;;;;;16.36;100.00;101748.59;5047502;28;20916;-76
2023/06/08 07:58:07;;;;;;;32.40;16.50;;;;;;;16.47;100.00;101741.47;5067353;28;20523;-76
2023/06/08 08:00:35;;;;;;;31.10;18.00;;;;;;;16.25;100.00;101746.72;5063798;28;20210;-76
2023/06/08 08:03:03;;;;;;;33.20;17.42;;;;;;;16.15;100.00;101751.03;5063263;28;20101;-77
2023/06/08 08:05:30;;;;;;;27.33;17.30;;;;;;;16.21;100.00;101746.06;5062005;28;20029;-78
2023/06/08 08:07:55;;;;;;;29.60;17.20;;;;;;;15.92;100.00;101752.69;5066381;28;20037;-78
2023/06/08 08:10:21;;;;;;;30.77;18.30;;;;;;;16.14;100.00;101750.19;5066004;28;20032;-77
2023/06/08 08:12:46;;;;;;;33.45;17.25;;;;;;;15.92;100.00;101753.56;5063161;28;20032;-77
2023/06/08 08:15:12;;;;;;;29.45;16.45;;;;;;;15.60;100.00;101761.16;5062490;28;20037;-77
2023/06/08 08:17:41;;;;;;;33.53;15.05;;;;;;;15.79;100.00;101753.56;5045575;28;20040;-77
2023/06/08 08:20:10;;;;;;;31.50;16.02;;;;;;;15.94;100.00;101753.44;5050358;28;20039;-77
2023/06/08 08:22:36;;;;;;;25.40;14.88;;;;;;;15.93;100.00;101757.09;5056871;28;20033;-77
2023/06/08 08:25:02;;;;;;;41.10;16.92;;;;;;;15.84;100.00;101760.44;5066052;28;20471;-77
2023/06/08 08:27:27;;;;;;;25.15;15.35;;;;;;;16.03;100.00;101755.47;5018320;28;20041;-77
2023/06/08 08:29:53;;;;;;;30.05;16.80;;;;;;;16.12;100.00;101759.34;5034091;28;20629;-77
2023/06/08 08:32:18;;;;;;;35.85;17.60;;;;;;;16.12;100.00;101767.44;5067229;28;20526;-77
2023/06/08 08:34:44;;;;;;;30.45;16.15;;;;;;;16.40;99.17;101750.09;5062895;28;20040;-77
2023/06/08 08:37:10;;;;;;;31.67;16.58;;;;;;;16.11;99.36;101760.28;5070859;28;20071;-77
2023/06/08 08:39:36;;;;;;;28.13;16.73;;;;;;;16.00;100.00;101761.06;5070646;28;20040;-77
2023/06/08 08:42:07;;;;;;;27.42;16.95;;;;;;;16.19;100.00;101757.91;5044465;28;20040;-77
2023/06/08 08:44:34;;;;;;;25.17;16.98;;;;;;;16.39;99.70;101748.41;5071803;28;20024;-75
2023/06/08 08:47:03;;;;;;;31.13;16.98;;;;;;;17.29;100.00;101755.09;5062122;28;20048;-77
2023/06/08 08:49:36;;;;;;;32.00;16.55;;;;;;;17.27;97.77;101749.84;5035699;28;20276;-78
2023/06/08 08:52:03;;;;;;;27.98;17.08;;;;;;;16.69;93.79;101745.25;5062667;28;20056;-77
2023/06/08 08:54:33;;;;;;;33.60;16.27;;;;;;;16.72;95.37;101747.78;5053946;28;20045;-76
2023/06/08 08:56:59;;;;;;;32.88;16.38;;;;;;;16.93;95.61;101748.00;5062989;28;20041;-77
2023/06/08 08:59:29;;;;;;;28.08;16.10;;;;;;;17.61;93.43;101736.41;5061977;28;20074;-77
2023/06/08 09:01:55;;;;;;;32.63;15.80;;;;;;;17.67;93.06;101733.25;5050781;28;20044;-76
2023/06/08 09:04:23;;;;;;;27.17;15.80;;;;;;;17.33;94.11;101735.00;5070040;28;20090;-78
2023/06/08 09:06:50;;;;;;;30.65;15.25;;;;;;;18.08;91.94;101739.91;5060470;28;20040;-77
2023/06/08 09:09:17;;;;;;;29.27;16.00;;;;;;;18.38;88.40;101739.25;5060646;28;20135;-77
2023/06/08 09:12:03;;;;;;;30.60;16.33;;;;;;;18.87;87.93;101743.28;5069361;28;20312;-76
2023/06/08 09:14:29;;;;;;;28.67;16.70;;;;;;;18.42;88.38;101745.22;5076929;28;20422;-77
2023/06/08 09:16:58;;;;;;;32.85;16.27;;;;;;;18.59;86.19;101740.16;5078897;28;20738;-77
2023/06/08 09:19:24;;;;;;;33.05;15.40;;;;;;;19.11;83.28;101727.69;5076171;28;20036;-77
2023/06/08 09:21:50;;;;;;;26.80;14.57;;;;;;;19.49;82.03;101728.94;5073527;28;20028;-76
2023/06/08 09:24:19;;;;;;;29.63;14.73;;;;;;;19.32;79.77;101722.28;5049999;28;20107;-76
2023/06/08 09:26:56;;;;;;;26.17;15.68;;;;;;;19.30;80.53;101723.41;5065295;28;20032;-77
2023/06/08 09:29:41;;;;;;;22.35;14.90;;;;;;;19.84;84.91;101715.06;5077965;28;20036;-77
2023/06/08 09:32:12;;;;;;;28.25;15.07;;;;;;;19.84;82.07;101711.50;5084889;28;20090;-76
2023/06/08 09:34:55;;;;;;;27.90;15.82;;;;;;;20.02;85.33;101706.28;5081584;28;20063;-77
2023/06/08 09:37:36;;;;;;;22.75;14.90;;;;;;;20.00;81.24;101698.31;5064730;28;20094;-76
2023/06/08 09:40:08;;;;;;;26.40;16.15;;;;;;;19.94;80.28;101703.41;5059435;28;20044;-76
2023/06/08 09:42:50;;;;;;;29.33;15.70;;;;;;;20.40;80.71;101689.28;5082159;28;20047;-77
2023/06/08 09:45:17;;;;;;;30.17;15.00;;;;;;;20.15;79.15;101686.09;5076309;28;20083;-77
2023/06/08 09:47:43;;;;;;;29.45;15.60;;;;;;;20.42;82.53;101692.69;5072031;28;20037;-77
2023/06/08 09:50:11;;;;;;;28.30;15.65;;;;;;;20.20;75.93;101688.38;5082145;28;20072;-76
2023/06/08 09:52:41;;;;;;;25.08;15.50;;;;;;;20.20;76.42;101685.66;5074823;28;20036;-77
2023/06/08 09:55:12;;;;;;;24.10;15.18;;;;;;;19.87;78.24;101698.53;5074296;28;20082;-77
2023/06/08 09:57:40;;;;;;;23.90;14.52;;;;;;;20.36;78.84;101690.53;5070797;28;20032;-76
2023/06/08 10:00:17;;;;;;;36.58;16.13;;;;;;;20.50;78.26;101694.75;5053249;28;20063;-77
2023/06/08 10:02:56;;;;;;;27.63;16.15;;;;;;;20.66;77.12;101695.88;5068811;28;20041;-75
2023/06/08 10:05:24;;;;;;;28.35;16.10;;;;;;;20.89;76.24;101696.47;5043870;28;20061;-76
2023/06/08 10:07:54;;;;;;;24.40;15.93;;;;;;;20.86;75.49;101691.31;5049403;28;20033;-75
2023/06/08 10:10:22;;;;;;;25.13;16.38;;;;;;;21.17;80.04;101694.72;5068151;28;21412;-75
2023/06/08 10:12:50;;;;;;;29.38;16.77;;;;;;;20.88;74.41;101688.47;5058833;28;20043;-76
2023/06/08 10:15:16;;;;;;;26.35;15.40;;;;;;;20.99;75.31;101687.47;5066360;28;20043;-76
2023/06/08 10:17:42;;;;;;;25.13;16.48;;;;;;;20.89;75.44;101684.78;5046275;28;20033;-77
2023/06/08 10:20:12;;;;;;;32.08;16.52;;;;;;;20.68;74.86;101679.47;5068973;28;20033;-75
2023/06/08 10:22:41;;;;;;;26.55;15.98;;;;;;;21.13;76.04;101684.28;5068610;28;20055;-76
2023/06/08 10:25:13;;;;;;;32.10;17.85;;;;;;;21.24;74.34;101686.00;5074301;28;20041;-77
2023/06/08 10:27:51;;;;;;;28.45;15.10;;;;;;;21.35;77.46;101683.16;5033739;28;20036;-76
2023/06/08 10:30:28;;;;;;;28.15;16.55;;;;;;;21.35;75.66;101677.72;5065439;28;20218;-76
2023/06/08 10:33:06;;;;;;;32.08;16.38;;;;;;;21.19;74.70;101678.31;5065410;28;20085;-78
2023/06/08 10:35:33;;;;;;;27.75;16.30;;;;;;;21.37;74.49;101675.72;5060943;28;20120;-75
2023/06/08 10:38:15;;;;;;;26.08;15.25;;;;;;;21.45;77.27;101681.28;5062686;28;20069;-77
2023/06/08 10:40:42;;;;;;;24.90;15.13;;;;;;;21.62;75.31;101664.19;5061500;28;20102;-76
2023/06/08 10:43:10;;;;;;;29.45;16.40;;;;;;;21.70;80.08;101667.03;5054051;28;20909;-75
2023/06/08 10:45:40;;;;;;;24.58;15.48;;;;;;;21.57;77.43;101661.06;5048707;28;20028;-76
2023/06/08 10:48:16;;;;;;;26.30;16.05;;;;;;;21.56;74.50;101653.94;5044741;28;20546;-76
2023/06/08 10:50:43;;;;;;;28.48;14.60;;;;;;;21.72;73.72;101662.28;5055634;28;20922;-76
2023/06/08 10:53:17;;;;;;;23.30;15.80;;;;;;;21.31;74.45;101649.19;5063398;28;20036;-77
2023/06/08 10:55:47;;;;;;;30.33;16.92;;;;;;;21.11;75.30;101651.03;5065658;28;20029;-76
2023/06/08 10:58:20;;;;;;;22.42;13.50;;;;;;;21.12;75.31;101644.63;5061595;28;20040;-75
2023/06/08 11:00:50;;;;;;;20.73;13.57;;;;;;;21.76;78.21;101643.84;5064059;28;20083;-76
2023/06/08 11:03:19;;;;;;;25.92;14.23;;;;;;;21.96;75.69;101637.31;5059958;28;20506;-76
2023/06/08 11:05:53;;;;;;;28.83;14.27;;;;;;;22.09;75.53;101636.06;5062260;28;20067;-78
2023/06/08 11:08:19;;;;;;;24.77;14.45;;;;;;;22.23;72.08;101622.84;5056484;28;20605;-77
2023/06/08 11:10:52;;;;;;;21.50;14.63;;;;;;;22.05;72.75;101629.25;5061032;28;20056;-76